sensor_id;sensor_type;location;lat;lon;timestamp;P1;durP1;ratioP1;P2;durP2;ratioP2
55601;SDS011;59921;51.332;12.410;2023-06-10T00:01:00;2.63;;;2.42;;
55601;SDS011;59921;51.332;12.410;2023-06-10T00:03:26;3.55;;;2.90;;
55601;SDS011;59921;51.332;12.410;2023-06-10T00:05:52;3.13;;;2.83;;
55601;SDS011;59921;51.332;12.410;2023-06-10T00:08:17;3.05;;;2.33;;
55601;SDS011;59921;51.332;12.410;2023-06-10T00:10:44;2.90;;;2.60;;
55601;SDS011;59921;51.332;12.410;2023-06-10T00:13:10;2.67;;;2.47;;
55601;SDS011;59921;51.332;12.410;2023-06-10T00:15:36;3.17;;;2.67;;
55601;SDS011;59921;51.332;12.410;2023-06-10T00:18:03;2.90;;;2.60;;
55601;SDS011;59921;51.332;12.410;2023-06-10T00:20:29;3.08;;;2.78;;
55601;SDS011;59921;51.332;12.410;2023-06-10T00:22:55;2.83;;;2.53;;
55601;SDS011;59921;51.332;12.410;2023-06-10T00:25:22;3.10;;;2.53;;
55601;SDS011;59921;51.332;12.410;2023-06-10T00:27:48;3.10;;;2.80;;
55601;SDS011;59921;51.332;12.410;2023-06-10T00:30:13;2.55;;;2.35;;
55601;SDS011;59921;51.332;12.410;2023-06-10T00:32:39;2.97;;;2.67;;
55601;SDS011;59921;51.332;12.410;2023-06-10T00:35:05;3.13;;;2.65;;
55601;SDS011;59921;51.332;12.410;2023-06-10T00:37:32;2.50;;;2.30;;
55601;SDS011;59921;51.332;12.410;2023-06-10T00:39:59;2.60;;;2.38;;
55601;SDS011;59921;51.332;12.410;2023-06-10T00:42:25;2.50;;;2.30;;
55601;SDS011;59921;51.332;12.410;2023-06-10T00:44:51;2.67;;;2.35;;
55601;SDS011;59921;51.332;12.410;2023-06-10T00:47:16;2.85;;;2.50;;
55601;SDS011;59921;51.332;12.410;2023-06-10T00:49:43;2.88;;;2.60;;
55601;SDS011;59921;51.332;12.410;2023-06-10T00:52:09;3.35;;;2.72;;
55601;SDS011;59921;51.332;12.410;2023-06-10T00:54:36;3.10;;;2.60;;
55601;SDS011;59921;51.332;12.410;2023-06-10T00:57:02;3.05;;;2.50;;
55601;SDS011;59921;51.332;12.410;2023-06-10T00:59:29;2.70;;;2.50;;
55601;SDS011;59921;51.332;12.410;2023-06-10T01:01:56;2.90;;;2.55;;
55601;SDS011;59921;51.332;12.410;2023-06-10T01:04:22;3.03;;;2.72;;
55601;SDS011;59921;51.332;12.410;2023-06-10T01:06:57;3.22;;;2.60;;
55601;SDS011;59921;51.332;12.410;2023-06-10T01:12:29;2.72;;;2.50;;
55601;SDS011;59921;51.332;12.410;2023-06-10T01:15:00;3.22;;;2.30;;
55601;SDS011;59921;51.332;12.410;2023-06-10T01:17:26;2.67;;;2.40;;
55601;SDS011;59921;51.332;12.410;2023-06-10T01:19:55;3.30;;;3.00;;
55601;SDS011;59921;51.332;12.410;2023-06-10T01:22:24;2.38;;;2.17;;
55601;SDS011;59921;51.332;12.410;2023-06-10T01:24:54;2.65;;;2.40;;
55601;SDS011;59921;51.332;12.410;2023-06-10T01:27:26;2.72;;;2.40;;
55601;SDS011;59921;51.332;12.410;2023-06-10T01:29:58;3.15;;;2.38;;
55601;SDS011;59921;51.332;12.410;2023-06-10T01:32:40;2.55;;;2.35;;
55601;SDS011;59921;51.332;12.410;2023-06-10T01:35:12;2.50;;;2.30;;
55601;SDS011;59921;51.332;12.410;2023-06-10T01:37:39;3.00;;;2.42;;
55601;SDS011;59921;51.332;12.410;2023-06-10T01:40:08;3.15;;;2.50;;
55601;SDS011;59921;51.332;12.410;2023-06-10T01:42:34;2.33;;;2.13;;
55601;SDS011;59921;51.332;12.410;2023-06-10T01:45:00;2.97;;;2.38;;
55601;SDS011;59921;51.332;12.410;2023-06-10T01:47:25;2.67;;;2.35;;
55601;SDS011;59921;51.332;12.410;2023-06-10T01:49:51;3.22;;;2.53;;
55601;SDS011;59921;51.332;12.410;2023-06-10T01:52:17;2.50;;;2.20;;
55601;SDS011;59921;51.332;12.410;2023-06-10T01:54:43;3.17;;;2.55;;
55601;SDS011;59921;51.332;12.410;2023-06-10T01:57:08;2.50;;;2.30;;
55601;SDS011;59921;51.332;12.410;2023-06-10T01:59:34;2.80;;;2.38;;
55601;SDS011;59921;51.332;12.410;2023-06-10T02:01:59;2.55;;;2.33;;
55601;SDS011;59921;51.332;12.410;2023-06-10T02:04:25;2.80;;;2.45;;
55601;SDS011;59921;51.332;12.410;2023-06-10T02:06:50;2.90;;;2.47;;
55601;SDS011;59921;51.332;12.410;2023-06-10T02:09:16;2.80;;;2.50;;
55601;SDS011;59921;51.332;12.410;2023-06-10T02:11:43;2.60;;;2.40;;
55601;SDS011;59921;51.332;12.410;2023-06-10T02:14:08;2.72;;;2.40;;
55601;SDS011;59921;51.332;12.410;2023-06-10T02:16:34;2.50;;;2.30;;
55601;SDS011;59921;51.332;12.410;2023-06-10T02:18:59;2.88;;;2.58;;
55601;SDS011;59921;51.332;12.410;2023-06-10T02:21:25;2.40;;;2.20;;
55601;SDS011;59921;51.332;12.410;2023-06-10T02:23:51;2.60;;;2.28;;
55601;SDS011;59921;51.332;12.410;2023-06-10T02:26:16;2.60;;;2.33;;
55601;SDS011;59921;51.332;12.410;2023-06-10T02:28:42;2.78;;;2.30;;
55601;SDS011;59921;51.332;12.410;2023-06-10T02:31:08;2.70;;;2.33;;
55601;SDS011;59921;51.332;12.410;2023-06-10T02:33:34;2.55;;;2.30;;
55601;SDS011;59921;51.332;12.410;2023-06-10T02:35:59;2.63;;;2.40;;
55601;SDS011;59921;51.332;12.410;2023-06-10T02:38:25;2.75;;;2.17;;
55601;SDS011;59921;51.332;12.410;2023-06-10T02:40:50;2.50;;;2.30;;
55601;SDS011;59921;51.332;12.410;2023-06-10T02:43:16;2.63;;;2.30;;
55601;SDS011;59921;51.332;12.410;2023-06-10T02:45:41;2.53;;;2.33;;
55601;SDS011;59921;51.332;12.410;2023-06-10T02:48:07;3.10;;;2.50;;
55601;SDS011;59921;51.332;12.410;2023-06-10T02:50:33;2.20;;;2.00;;
55601;SDS011;59921;51.332;12.410;2023-06-10T02:52:59;3.13;;;2.38;;
55601;SDS011;59921;51.332;12.410;2023-06-10T02:55:25;2.55;;;2.20;;
55601;SDS011;59921;51.332;12.410;2023-06-10T02:57:51;2.50;;;2.30;;
55601;SDS011;59921;51.332;12.410;2023-06-10T03:00:20;4.13;;;2.72;;
55601;SDS011;59921;51.332;12.410;2023-06-10T03:02:46;2.92;;;2.30;;
55601;SDS011;59921;51.332;12.410;2023-06-10T03:05:13;3.08;;;2.35;;
55601;SDS011;59921;51.332;12.410;2023-06-10T03:07:38;2.65;;;2.30;;
55601;SDS011;59921;51.332;12.410;2023-06-10T03:10:05;2.90;;;2.33;;
55601;SDS011;59921;51.332;12.410;2023-06-10T03:12:31;2.85;;;2.40;;
55601;SDS011;59921;51.332;12.410;2023-06-10T03:14:57;2.80;;;2.30;;
55601;SDS011;59921;51.332;12.410;2023-06-10T03:17:23;2.83;;;2.53;;
55601;SDS011;59921;51.332;12.410;2023-06-10T03:19:49;2.85;;;2.40;;
55601;SDS011;59921;51.332;12.410;2023-06-10T03:22:15;2.47;;;2.28;;
55601;SDS011;59921;51.332;12.410;2023-06-10T03:24:41;3.78;;;2.60;;
55601;SDS011;59921;51.332;12.410;2023-06-10T03:27:11;2.30;;;2.10;;
55601;SDS011;59921;51.332;12.410;2023-06-10T03:29:38;2.10;;;1.90;;
55601;SDS011;59921;51.332;12.410;2023-06-10T03:32:04;2.85;;;2.08;;
55601;SDS011;59921;51.332;12.410;2023-06-10T03:34:31;2.42;;;2.20;;
55601;SDS011;59921;51.332;12.410;2023-06-10T03:36:57;2.40;;;2.15;;
55601;SDS011;59921;51.332;12.410;2023-06-10T03:39:23;2.88;;;2.50;;
55601;SDS011;59921;51.332;12.410;2023-06-10T03:41:49;2.67;;;2.20;;
55601;SDS011;59921;51.332;12.410;2023-06-10T03:44:15;3.30;;;2.30;;
55601;SDS011;59921;51.332;12.410;2023-06-10T03:46:40;2.40;;;2.20;;
55601;SDS011;59921;51.332;12.410;2023-06-10T03:49:06;2.30;;;2.10;;
55601;SDS011;59921;51.332;12.410;2023-06-10T03:51:32;2.53;;;2.33;;
55601;SDS011;59921;51.332;12.410;2023-06-10T03:53:58;2.13;;;1.92;;
55601;SDS011;59921;51.332;12.410;2023-06-10T03:56:23;2.55;;;2.30;;
55601;SDS011;59921;51.332;12.410;2023-06-10T03:58:49;2.35;;;2.10;;
55601;SDS011;59921;51.332;12.410;2023-06-10T04:01:14;2.80;;;2.40;;
55601;SDS011;59921;51.332;12.410;2023-06-10T04:03:40;2.55;;;2.10;;
55601;SDS011;59921;51.332;12.410;2023-06-10T04:06:06;2.78;;;2.30;;
55601;SDS011;59921;51.332;12.410;2023-06-10T04:08:32;2.55;;;2.35;;
55601;SDS011;59921;51.332;12.410;2023-06-10T04:10:58;2.40;;;2.20;;
55601;SDS011;59921;51.332;12.410;2023-06-10T04:13:23;2.50;;;1.98;;
55601;SDS011;59921;51.332;12.410;2023-06-10T04:15:49;2.20;;;2.00;;
55601;SDS011;59921;51.332;12.410;2023-06-10T04:18:14;2.50;;;2.13;;
55601;SDS011;59921;51.332;12.410;2023-06-10T04:20:40;2.30;;;2.10;;
55601;SDS011;59921;51.332;12.410;2023-06-10T04:23:06;2.25;;;2.00;;
55601;SDS011;59921;51.332;12.410;2023-06-10T04:25:33;2.40;;;2.20;;
55601;SDS011;59921;51.332;12.410;2023-06-10T04:27:59;2.22;;;2.00;;
55601;SDS011;59921;51.332;12.410;2023-06-10T04:30:25;2.30;;;2.10;;
55601;SDS011;59921;51.332;12.410;2023-06-10T04:32:50;2.58;;;1.98;;
55601;SDS011;59921;51.332;12.410;2023-06-10T04:35:17;2.33;;;2.00;;
55601;SDS011;59921;51.332;12.410;2023-06-10T04:37:42;2.70;;;2.10;;
55601;SDS011;59921;51.332;12.410;2023-06-10T04:40:08;2.10;;;1.90;;
55601;SDS011;59921;51.332;12.410;2023-06-10T04:42:34;2.30;;;2.10;;
55601;SDS011;59921;51.332;12.410;2023-06-10T04:45:00;2.58;;;2.15;;
55601;SDS011;59921;51.332;12.410;2023-06-10T04:47:26;2.78;;;2.22;;
55601;SDS011;59921;51.332;12.410;2023-06-10T04:49:52;3.00;;;2.13;;
55601;SDS011;59921;51.332;12.410;2023-06-10T04:52:17;2.60;;;2.05;;
55601;SDS011;59921;51.332;12.410;2023-06-10T04:54:43;2.20;;;1.98;;
55601;SDS011;59921;51.332;12.410;2023-06-10T04:57:09;2.08;;;1.88;;
55601;SDS011;59921;51.332;12.410;2023-06-10T04:59:36;2.53;;;2.00;;
55601;SDS011;59921;51.332;12.410;2023-06-10T05:02:03;2.40;;;2.03;;
55601;SDS011;59921;51.332;12.410;2023-06-10T05:04:29;2.40;;;2.10;;
55601;SDS011;59921;51.332;12.410;2023-06-10T05:06:55;2.70;;;2.10;;
55601;SDS011;59921;51.332;12.410;2023-06-10T05:09:21;2.38;;;2.05;;
55601;SDS011;59921;51.332;12.410;2023-06-10T05:11:46;2.35;;;2.15;;
55601;SDS011;59921;51.332;12.410;2023-06-10T05:14:12;2.35;;;1.80;;
55601;SDS011;59921;51.332;12.410;2023-06-10T05:16:38;2.10;;;1.90;;
55601;SDS011;59921;51.332;12.410;2023-06-10T05:19:04;2.42;;;2.20;;
55601;SDS011;59921;51.332;12.410;2023-06-10T05:21:30;2.47;;;2.10;;
55601;SDS011;59921;51.332;12.410;2023-06-10T05:23:55;1.80;;;1.70;;
55601;SDS011;59921;51.332;12.410;2023-06-10T05:26:20;2.42;;;2.00;;
55601;SDS011;59921;51.332;12.410;2023-06-10T05:28:46;2.40;;;2.20;;
55601;SDS011;59921;51.332;12.410;2023-06-10T05:31:12;1.80;;;1.70;;
55601;SDS011;59921;51.332;12.410;2023-06-10T05:33:38;2.38;;;1.92;;
55601;SDS011;59921;51.332;12.410;2023-06-10T05:36:04;2.45;;;2.20;;
55601;SDS011;59921;51.332;12.410;2023-06-10T05:38:30;2.60;;;1.90;;
55601;SDS011;59921;51.332;12.410;2023-06-10T05:40:56;2.13;;;1.92;;
55601;SDS011;59921;51.332;12.410;2023-06-10T05:43:22;2.10;;;1.90;;
55601;SDS011;59921;51.332;12.410;2023-06-10T05:45:47;2.00;;;1.80;;
55601;SDS011;59921;51.332;12.410;2023-06-10T05:48:13;1.98;;;1.77;;
55601;SDS011;59921;51.332;12.410;2023-06-10T05:50:39;1.98;;;1.70;;
55601;SDS011;59921;51.332;12.410;2023-06-10T05:53:07;2.20;;;2.00;;
55601;SDS011;59921;51.332;12.410;2023-06-10T05:55:40;2.00;;;1.80;;
55601;SDS011;59921;51.332;12.410;2023-06-10T05:58:08;2.33;;;1.75;;
55601;SDS011;59921;51.332;12.410;2023-06-10T06:00:34;2.20;;;1.80;;
55601;SDS011;59921;51.332;12.410;2023-06-10T06:03:00;2.00;;;1.80;;
55601;SDS011;59921;51.332;12.410;2023-06-10T06:05:26;2.03;;;1.80;;
55601;SDS011;59921;51.332;12.410;2023-06-10T06:07:51;1.98;;;1.77;;
55601;SDS011;59921;51.332;12.410;2023-06-10T06:10:17;2.30;;;1.92;;
55601;SDS011;59921;51.332;12.410;2023-06-10T06:12:43;2.00;;;1.80;;
55601;SDS011;59921;51.332;12.410;2023-06-10T06:15:10;2.28;;;1.88;;
55601;SDS011;59921;51.332;12.410;2023-06-10T06:17:36;2.15;;;1.80;;
55601;SDS011;59921;51.332;12.410;2023-06-10T06:20:05;2.05;;;1.85;;
55601;SDS011;59921;51.332;12.410;2023-06-10T06:22:31;1.90;;;1.70;;
55601;SDS011;59921;51.332;12.410;2023-06-10T06:24:56;2.28;;;1.92;;
55601;SDS011;59921;51.332;12.410;2023-06-10T06:27:22;1.92;;;1.80;;
55601;SDS011;59921;51.332;12.410;2023-06-10T06:29:47;1.83;;;1.70;;
55601;SDS011;59921;51.332;12.410;2023-06-10T06:32:13;2.42;;;1.95;;
55601;SDS011;59921;51.332;12.410;2023-06-10T06:34:38;2.20;;;1.90;;
55601;SDS011;59921;51.332;12.410;2023-06-10T06:37:04;1.80;;;1.65;;
55601;SDS011;59921;51.332;12.410;2023-06-10T06:39:29;1.65;;;1.52;;
55601;SDS011;59921;51.332;12.410;2023-06-10T06:41:55;1.70;;;1.60;;
55601;SDS011;59921;51.332;12.410;2023-06-10T06:44:20;2.10;;;1.90;;
55601;SDS011;59921;51.332;12.410;2023-06-10T06:46:46;1.95;;;1.70;;
55601;SDS011;59921;51.332;12.410;2023-06-10T06:49:11;2.00;;;1.80;;
55601;SDS011;59921;51.332;12.410;2023-06-10T06:51:37;3.15;;;1.73;;
55601;SDS011;59921;51.332;12.410;2023-06-10T06:54:03;2.00;;;1.80;;
55601;SDS011;59921;51.332;12.410;2023-06-10T06:56:30;1.90;;;1.70;;
55601;SDS011;59921;51.332;12.410;2023-06-10T06:58:56;2.00;;;1.80;;
55601;SDS011;59921;51.332;12.410;2023-06-10T07:01:21;2.22;;;2.03;;
55601;SDS011;59921;51.332;12.410;2023-06-10T07:03:47;2.42;;;2.08;;
55601;SDS011;59921;51.332;12.410;2023-06-10T07:06:12;1.83;;;1.73;;
55601;SDS011;59921;51.332;12.410;2023-06-10T07:08:38;1.77;;;1.67;;
55601;SDS011;59921;51.332;12.410;2023-06-10T07:11:04;2.10;;;1.90;;
55601;SDS011;59921;51.332;12.410;2023-06-10T07:13:30;2.08;;;1.80;;
55601;SDS011;59921;51.332;12.410;2023-06-10T07:15:55;2.08;;;1.60;;
55601;SDS011;59921;51.332;12.410;2023-06-10T07:18:21;1.70;;;1.60;;
55601;SDS011;59921;51.332;12.410;2023-06-10T07:20:46;1.95;;;1.75;;
55601;SDS011;59921;51.332;12.410;2023-06-10T07:23:12;2.05;;;1.85;;
55601;SDS011;59921;51.332;12.410;2023-06-10T07:25:37;2.15;;;1.77;;
55601;SDS011;59921;51.332;12.410;2023-06-10T07:28:03;2.15;;;1.77;;
55601;SDS011;59921;51.332;12.410;2023-06-10T07:30:28;1.85;;;1.50;;
55601;SDS011;59921;51.332;12.410;2023-06-10T07:32:54;1.88;;;1.58;;
55601;SDS011;59921;51.332;12.410;2023-06-10T07:35:20;1.70;;;1.60;;
55601;SDS011;59921;51.332;12.410;2023-06-10T07:37:46;2.13;;;1.70;;
55601;SDS011;59921;51.332;12.410;2023-06-10T07:40:12;2.22;;;1.90;;
55601;SDS011;59921;51.332;12.410;2023-06-10T07:42:37;1.77;;;1.67;;
55601;SDS011;59921;51.332;12.410;2023-06-10T07:45:03;2.40;;;1.80;;
55601;SDS011;59921;51.332;12.410;2023-06-10T07:47:30;1.95;;;1.60;;
55601;SDS011;59921;51.332;12.410;2023-06-10T07:49:56;2.17;;;1.85;;
55601;SDS011;59921;51.332;12.410;2023-06-10T07:52:21;1.77;;;1.67;;
55601;SDS011;59921;51.332;12.410;2023-06-10T07:54:47;1.90;;;1.70;;
55601;SDS011;59921;51.332;12.410;2023-06-10T07:57:12;1.75;;;1.65;;
55601;SDS011;59921;51.332;12.410;2023-06-10T07:59:38;2.08;;;1.70;;
55601;SDS011;59921;51.332;12.410;2023-06-10T08:02:04;1.95;;;1.75;;
55601;SDS011;59921;51.332;12.410;2023-06-10T08:04:30;2.03;;;1.77;;
55601;SDS011;59921;51.332;12.410;2023-06-10T08:06:56;1.90;;;1.70;;
55601;SDS011;59921;51.332;12.410;2023-06-10T08:09:22;1.83;;;1.60;;
55601;SDS011;59921;51.332;12.410;2023-06-10T08:11:48;1.58;;;1.48;;
55601;SDS011;59921;51.332;12.410;2023-06-10T08:14:14;1.80;;;1.60;;
55601;SDS011;59921;51.332;12.410;2023-06-10T08:16:39;1.90;;;1.70;;
55601;SDS011;59921;51.332;12.410;2023-06-10T08:19:05;1.65;;;1.52;;
55601;SDS011;59921;51.332;12.410;2023-06-10T08:21:31;1.98;;;1.80;;
55601;SDS011;59921;51.332;12.410;2023-06-10T08:23:56;2.03;;;1.80;;
55601;SDS011;59921;51.332;12.410;2023-06-10T08:26:22;1.77;;;1.58;;
55601;SDS011;59921;51.332;12.410;2023-06-10T08:28:48;2.20;;;1.90;;
55601;SDS011;59921;51.332;12.410;2023-06-10T08:31:14;1.60;;;1.50;;
55601;SDS011;59921;51.332;12.410;2023-06-10T08:33:40;1.70;;;1.60;;
55601;SDS011;59921;51.332;12.410;2023-06-10T08:36:07;1.63;;;1.52;;
55601;SDS011;59921;51.332;12.410;2023-06-10T08:38:32;1.90;;;1.70;;
55601;SDS011;59921;51.332;12.410;2023-06-10T08:40:59;1.88;;;1.67;;
55601;SDS011;59921;51.332;12.410;2023-06-10T08:43:29;1.88;;;1.73;;
55601;SDS011;59921;51.332;12.410;2023-06-10T08:45:57;1.83;;;1.65;;
55601;SDS011;59921;51.332;12.410;2023-06-10T08:48:26;1.50;;;1.40;;
55601;SDS011;59921;51.332;12.410;2023-06-10T08:50:55;2.05;;;1.55;;
55601;SDS011;59921;51.332;12.410;2023-06-10T08:53:22;1.58;;;1.48;;
55601;SDS011;59921;51.332;12.410;2023-06-10T08:55:52;1.60;;;1.50;;
55601;SDS011;59921;51.332;12.410;2023-06-10T08:58:19;2.00;;;1.80;;
55601;SDS011;59921;51.332;12.410;2023-06-10T09:00:45;2.40;;;1.75;;
55601;SDS011;59921;51.332;12.410;2023-06-10T09:03:11;1.58;;;1.42;;
55601;SDS011;59921;51.332;12.410;2023-06-10T09:05:37;2.17;;;1.50;;
55601;SDS011;59921;51.332;12.410;2023-06-10T09:08:03;1.83;;;1.60;;
55601;SDS011;59921;51.332;12.410;2023-06-10T09:10:30;1.92;;;1.75;;
55601;SDS011;59921;51.332;12.410;2023-06-10T09:12:57;1.75;;;1.65;;
55601;SDS011;59921;51.332;12.410;2023-06-10T09:15:25;1.52;;;1.42;;
55601;SDS011;59921;51.332;12.410;2023-06-10T09:17:52;1.70;;;1.60;;
55601;SDS011;59921;51.332;12.410;2023-06-10T09:20:17;1.60;;;1.50;;
55601;SDS011;59921;51.332;12.410;2023-06-10T09:22:44;1.90;;;1.60;;
55601;SDS011;59921;51.332;12.410;2023-06-10T09:25:10;1.92;;;1.63;;
55601;SDS011;59921;51.332;12.410;2023-06-10T09:27:44;1.70;;;1.40;;
55601;SDS011;59921;51.332;12.410;2023-06-10T09:30:27;2.50;;;1.77;;
55601;SDS011;59921;51.332;12.410;2023-06-10T09:32:57;1.63;;;1.52;;
55601;SDS011;59921;51.332;12.410;2023-06-10T09:35:25;2.00;;;1.70;;
55601;SDS011;59921;51.332;12.410;2023-06-10T09:37:52;1.60;;;1.50;;
55601;SDS011;59921;51.332;12.410;2023-06-10T09:40:19;1.88;;;1.60;;
55601;SDS011;59921;51.332;12.410;2023-06-10T09:42:44;2.78;;;1.70;;
55601;SDS011;59921;51.332;12.410;2023-06-10T09:45:10;1.70;;;1.60;;
55601;SDS011;59921;51.332;12.410;2023-06-10T09:47:36;1.52;;;1.42;;
55601;SDS011;59921;51.332;12.410;2023-06-10T09:50:01;1.95;;;1.75;;
55601;SDS011;59921;51.332;12.410;2023-06-10T09:52:28;1.85;;;1.55;;
55601;SDS011;59921;51.332;12.410;2023-06-10T09:54:58;2.42;;;1.80;;
55601;SDS011;59921;51.332;12.410;2023-06-10T09:57:25;1.92;;;1.63;;
55601;SDS011;59921;51.332;12.410;2023-06-10T09:59:54;2.00;;;1.80;;
55601;SDS011;59921;51.332;12.410;2023-06-10T10:02:20;1.75;;;1.58;;
55601;SDS011;59921;51.332;12.410;2023-06-10T10:04:45;1.75;;;1.60;;
55601;SDS011;59921;51.332;12.410;2023-06-10T10:07:11;1.70;;;1.48;;
55601;SDS011;59921;51.332;12.410;2023-06-10T10:09:38;1.98;;;1.75;;
55601;SDS011;59921;51.332;12.410;2023-06-10T10:12:06;1.80;;;1.63;;
55601;SDS011;59921;51.332;12.410;2023-06-10T10:14:33;2.17;;;1.70;;
55601;SDS011;59921;51.332;12.410;2023-06-10T10:17:00;2.25;;;1.85;;
55601;SDS011;59921;51.332;12.410;2023-06-10T10:19:30;1.90;;;1.67;;
55601;SDS011;59921;51.332;12.410;2023-06-10T10:22:04;1.85;;;1.65;;
55601;SDS011;59921;51.332;12.410;2023-06-10T10:24:56;2.22;;;1.80;;
55601;SDS011;59921;51.332;12.410;2023-06-10T10:27:26;1.77;;;1.67;;
55601;SDS011;59921;51.332;12.410;2023-06-10T10:29:53;1.85;;;1.60;;
55601;SDS011;59921;51.332;12.410;2023-06-10T10:32:30;1.60;;;1.50;;
55601;SDS011;59921;51.332;12.410;2023-06-10T10:35:05;1.70;;;1.52;;
55601;SDS011;59921;51.332;12.410;2023-06-10T10:40:00;2.08;;;1.70;;
55601;SDS011;59921;51.332;12.410;2023-06-10T10:42:28;1.95;;;1.70;;
55601;SDS011;59921;51.332;12.410;2023-06-10T10:44:54;2.20;;;1.70;;
55601;SDS011;59921;51.332;12.410;2023-06-10T10:47:21;2.10;;;1.80;;
55601;SDS011;59921;51.332;12.410;2023-06-10T10:49:48;1.70;;;1.60;;
55601;SDS011;59921;51.332;12.410;2023-06-10T10:52:18;2.28;;;1.58;;
55601;SDS011;59921;51.332;12.410;2023-06-10T10:54:45;2.08;;;1.88;;
55601;SDS011;59921;51.332;12.410;2023-06-10T10:57:19;1.85;;;1.60;;
55601;SDS011;59921;51.332;12.410;2023-06-10T11:04:58;1.77;;;1.52;;
55601;SDS011;59921;51.332;12.410;2023-06-10T11:07:25;1.90;;;1.70;;
55601;SDS011;59921;51.332;12.410;2023-06-10T11:15:08;2.05;;;1.80;;
55601;SDS011;59921;51.332;12.410;2023-06-10T11:17:34;2.00;;;1.73;;
55601;SDS011;59921;51.332;12.410;2023-06-10T11:19:59;2.30;;;1.77;;
55601;SDS011;59921;51.332;12.410;2023-06-10T11:22:25;2.17;;;1.98;;
55601;SDS011;59921;51.332;12.410;2023-06-10T11:24:51;2.78;;;1.80;;
55601;SDS011;59921;51.332;12.410;2023-06-10T11:27:23;2.20;;;2.00;;
55601;SDS011;59921;51.332;12.410;2023-06-10T11:32:34;2.05;;;1.70;;
55601;SDS011;59921;51.332;12.410;2023-06-10T11:35:03;3.45;;;2.17;;
55601;SDS011;59921;51.332;12.410;2023-06-10T11:37:29;2.30;;;2.05;;
55601;SDS011;59921;51.332;12.410;2023-06-10T11:39:55;2.47;;;1.98;;
55601;SDS011;59921;51.332;12.410;2023-06-10T11:42:24;2.13;;;1.92;;
55601;SDS011;59921;51.332;12.410;2023-06-10T11:44:53;2.10;;;1.90;;
55601;SDS011;59921;51.332;12.410;2023-06-10T11:47:19;2.10;;;1.90;;
55601;SDS011;59921;51.332;12.410;2023-06-10T11:49:45;2.20;;;1.90;;
55601;SDS011;59921;51.332;12.410;2023-06-10T11:52:26;2.20;;;1.88;;
55601;SDS011;59921;51.332;12.410;2023-06-10T11:54:53;2.45;;;2.20;;
55601;SDS011;59921;51.332;12.410;2023-06-10T11:57:20;2.15;;;1.80;;
55601;SDS011;59921;51.332;12.410;2023-06-10T11:59:45;2.20;;;2.00;;
55601;SDS011;59921;51.332;12.410;2023-06-10T12:02:15;2.55;;;2.10;;
55601;SDS011;59921;51.332;12.410;2023-06-10T12:04:41;2.30;;;2.10;;
55601;SDS011;59921;51.332;12.410;2023-06-10T12:07:07;2.30;;;2.10;;
55601;SDS011;59921;51.332;12.410;2023-06-10T12:09:32;2.40;;;2.05;;
55601;SDS011;59921;51.332;12.410;2023-06-10T12:12:02;3.20;;;2.75;;
55601;SDS011;59921;51.332;12.410;2023-06-10T12:19:49;4.47;;;2.92;;
55601;SDS011;59921;51.332;12.410;2023-06-10T12:22:16;4.53;;;3.47;;
55601;SDS011;59921;51.332;12.410;2023-06-10T12:24:45;4.82;;;2.97;;
55601;SDS011;59921;51.332;12.410;2023-06-10T12:27:31;4.22;;;3.40;;
55601;SDS011;59921;51.332;12.410;2023-06-10T12:29:59;4.15;;;2.97;;
55601;SDS011;59921;51.332;12.410;2023-06-10T12:35:09;3.95;;;3.17;;
55601;SDS011;59921;51.332;12.410;2023-06-10T12:37:40;4.10;;;3.30;;
55601;SDS011;59921;51.332;12.410;2023-06-10T12:40:06;4.75;;;2.90;;
55601;SDS011;59921;51.332;12.410;2023-06-10T12:42:35;4.72;;;2.80;;
55601;SDS011;59921;51.332;12.410;2023-06-10T12:45:02;3.53;;;3.03;;
55601;SDS011;59921;51.332;12.410;2023-06-10T12:47:29;5.15;;;2.83;;
55601;SDS011;59921;51.332;12.410;2023-06-10T12:50:04;3.55;;;2.97;;
55601;SDS011;59921;51.332;12.410;2023-06-10T12:52:31;3.80;;;3.17;;
55601;SDS011;59921;51.332;12.410;2023-06-10T12:54:57;3.72;;;2.90;;
55601;SDS011;59921;51.332;12.410;2023-06-10T12:57:23;3.75;;;2.90;;
55601;SDS011;59921;51.332;12.410;2023-06-10T12:59:49;3.22;;;2.85;;
55601;SDS011;59921;51.332;12.410;2023-06-10T13:02:20;3.40;;;3.10;;
55601;SDS011;59921;51.332;12.410;2023-06-10T13:04:48;3.63;;;3.00;;
55601;SDS011;59921;51.332;12.410;2023-06-10T13:07:15;3.90;;;2.95;;
55601;SDS011;59921;51.332;12.410;2023-06-10T13:09:41;3.65;;;3.10;;
55601;SDS011;59921;51.332;12.410;2023-06-10T13:12:06;3.92;;;2.95;;
55601;SDS011;59921;51.332;12.410;2023-06-10T13:14:33;3.67;;;2.90;;
55601;SDS011;59921;51.332;12.410;2023-06-10T13:16:58;3.95;;;3.15;;
55601;SDS011;59921;51.332;12.410;2023-06-10T13:19:24;3.33;;;2.85;;
55601;SDS011;59921;51.332;12.410;2023-06-10T13:21:49;3.03;;;2.60;;
55601;SDS011;59921;51.332;12.410;2023-06-10T13:24:15;3.75;;;2.90;;
55601;SDS011;59921;51.332;12.410;2023-06-10T13:26:41;3.95;;;2.88;;
55601;SDS011;59921;51.332;12.410;2023-06-10T13:29:06;3.45;;;2.95;;
55601;SDS011;59921;51.332;12.410;2023-06-10T13:31:33;3.65;;;2.70;;
55601;SDS011;59921;51.332;12.410;2023-06-10T13:33:59;3.38;;;3.00;;
55601;SDS011;59921;51.332;12.410;2023-06-10T13:36:24;3.80;;;2.70;;
55601;SDS011;59921;51.332;12.410;2023-06-10T13:38:50;3.35;;;2.70;;
55601;SDS011;59921;51.332;12.410;2023-06-10T13:41:15;3.10;;;2.60;;
55601;SDS011;59921;51.332;12.410;2023-06-10T13:43:41;3.33;;;2.78;;
55601;SDS011;59921;51.332;12.410;2023-06-10T13:46:07;3.00;;;2.70;;
55601;SDS011;59921;51.332;12.410;2023-06-10T13:48:32;3.45;;;2.72;;
55601;SDS011;59921;51.332;12.410;2023-06-10T13:50:58;3.00;;;2.70;;
55601;SDS011;59921;51.332;12.410;2023-06-10T13:53:25;3.00;;;2.70;;
55601;SDS011;59921;51.332;12.410;2023-06-10T13:55:51;3.80;;;3.00;;
55601;SDS011;59921;51.332;12.410;2023-06-10T13:58:16;2.90;;;2.60;;
55601;SDS011;59921;51.332;12.410;2023-06-10T14:00:42;3.20;;;2.75;;
55601;SDS011;59921;51.332;12.410;2023-06-10T14:03:07;3.45;;;3.03;;
55601;SDS011;59921;51.332;12.410;2023-06-10T14:05:33;3.30;;;2.72;;
55601;SDS011;59921;51.332;12.410;2023-06-10T14:07:59;4.50;;;2.70;;
55601;SDS011;59921;51.332;12.410;2023-06-10T14:10:25;2.80;;;2.58;;
55601;SDS011;59921;51.332;12.410;2023-06-10T14:12:50;2.80;;;2.50;;
55601;SDS011;59921;51.332;12.410;2023-06-10T14:15:16;3.42;;;2.90;;
55601;SDS011;59921;51.332;12.410;2023-06-10T14:17:42;4.43;;;2.58;;
55601;SDS011;59921;51.332;12.410;2023-06-10T14:20:08;4.18;;;2.72;;
55601;SDS011;59921;51.332;12.410;2023-06-10T14:22:34;2.95;;;2.60;;
55601;SDS011;59921;51.332;12.410;2023-06-10T14:24:59;2.95;;;2.60;;
55601;SDS011;59921;51.332;12.410;2023-06-10T14:27:25;3.28;;;2.70;;
55601;SDS011;59921;51.332;12.410;2023-06-10T14:29:51;3.42;;;2.58;;
55601;SDS011;59921;51.332;12.410;2023-06-10T14:32:16;3.97;;;2.70;;
55601;SDS011;59921;51.332;12.410;2023-06-10T14:34:42;3.15;;;2.50;;
55601;SDS011;59921;51.332;12.410;2023-06-10T14:37:09;3.30;;;2.60;;
55601;SDS011;59921;51.332;12.410;2023-06-10T14:39:35;2.88;;;2.58;;
55601;SDS011;59921;51.332;12.410;2023-06-10T14:42:01;2.80;;;2.47;;
55601;SDS011;59921;51.332;12.410;2023-06-10T14:44:27;2.75;;;2.40;;
55601;SDS011;59921;51.332;12.410;2023-06-10T14:46:52;3.45;;;2.50;;
55601;SDS011;59921;51.332;12.410;2023-06-10T14:49:18;3.13;;;2.60;;
55601;SDS011;59921;51.332;12.410;2023-06-10T14:51:43;3.03;;;2.70;;
55601;SDS011;59921;51.332;12.410;2023-06-10T14:54:10;2.90;;;2.53;;
55601;SDS011;59921;51.332;12.410;2023-06-10T14:56:35;2.80;;;2.50;;